Time;durP1;ratioP1;P1;durP2;ratioP2;P2;SDS_P1;SDS_P2;PMS_P1;PMS_P2;Temp;Humidity;BMP_temperature;BMP_pressure;BME280_temperature;BME280_humidity;BME280_pressure;Samples;Min_cycle;Max_cycle;Signal;HPM_P1;HPM_P2
2023/03/08 00:01:08;;;;;;;15.87;11.20;;;3.20;99.90;;;;;;5045826;28;20428;-79
2023/03/08 00:03:34;;;;;;;15.03;11.27;;;3.30;99.90;;;;;;5056574;28;20667;-79
2023/03/08 00:06:04;;;;;;;14.70;10.87;;;3.30;99.90;;;;;;5055161;28;20478;-79
2023/03/08 00:08:29;;;;;;;17.50;12.00;;;3.50;99.90;;;;;;5030692;28;20448;-79
2023/03/08 00:10:55;;;;;;;16.80;11.80;;;3.40;99.90;;;;;;5051730;28;20514;-79
2023/03/08 00:13:21;;;;;;;16.90;12.07;;;3.40;99.90;;;;;;5047644;28;20232;-78
2023/03/08 00:15:46;;;;;;;17.50;10.90;;;3.20;99.90;;;;;;5051192;28;20260;-78
2023/03/08 00:18:12;;;;;;;16.13;12.00;;;3.20;99.90;;;;;;5046554;28;20217;-79
2023/03/08 00:20:37;;;;;;;15.50;11.60;;;3.30;99.90;;;;;;5048224;28;20186;-79
2023/03/08 00:23:03;;;;;;;20.07;12.13;;;3.50;99.90;;;;;;5055208;28;20274;-79
2023/03/08 00:25:29;;;;;;;17.67;11.70;;;3.40;99.90;;;;;;5040642;28;20188;-79
2023/03/08 00:27:54;;;;;;;17.50;12.07;;;3.30;99.90;;;;;;5056097;28;20203;-79
2023/03/08 00:30:20;;;;;;;19.03;12.80;;;3.00;99.90;;;;;;5043699;28;20241;-79
2023/03/08 00:32:46;;;;;;;19.70;13.37;;;3.30;99.90;;;;;;5061007;28;20188;-79
2023/03/08 00:35:11;;;;;;;19.13;13.30;;;3.20;99.90;;;;;;5049300;28;20643;-78
2023/03/08 00:37:37;;;;;;;19.00;12.87;;;3.50;99.90;;;;;;5052143;28;20206;-77
2023/03/08 00:40:04;;;;;;;19.70;13.57;;;3.40;99.90;;;;;;5052647;28;20193;-78
2023/03/08 00:42:30;;;;;;;18.23;13.27;;;3.20;99.90;;;;;;5056435;28;20185;-80
2023/03/08 00:44:56;;;;;;;18.20;12.30;;;3.20;99.90;;;;;;5051730;28;20435;-78
2023/03/08 00:47:21;;;;;;;19.30;13.23;;;3.30;99.90;;;;;;5048593;28;20198;-79
2023/03/08 00:49:47;;;;;;;15.03;12.23;;;3.30;99.90;;;;;;5049082;28;20193;-79
2023/03/08 00:52:12;;;;;;;19.60;12.40;;;3.40;99.90;;;;;;5046962;28;20261;-79
2023/03/08 00:54:38;;;;;;;18.83;12.80;;;3.30;99.90;;;;;;5046829;28;20178;-79
2023/03/08 00:57:04;;;;;;;16.97;11.93;;;3.20;99.90;;;;;;5053466;28;20231;-78
2023/03/08 00:59:29;;;;;;;17.07;12.47;;;3.20;99.90;;;;;;5050711;28;20197;-78
2023/03/08 01:01:55;;;;;;;21.90;12.30;;;3.40;99.90;;;;;;5059961;28;20201;-78
2023/03/08 01:04:21;;;;;;;16.83;12.70;;;3.30;99.90;;;;;;5054343;28;20287;-78
2023/03/08 01:06:46;;;;;;;21.00;13.77;;;3.30;99.90;;;;;;5051464;28;20186;-78
2023/03/08 01:09:12;;;;;;;18.37;14.07;;;3.20;99.90;;;;;;5048126;28;20186;-78
2023/03/08 01:11:38;;;;;;;18.43;13.43;;;3.30;99.90;;;;;;5051130;28;20240;-77
2023/03/08 01:14:07;;;;;;;18.50;12.70;;;3.50;99.90;;;;;;5048408;28;20884;-79
2023/03/08 01:16:32;;;;;;;17.17;12.77;;;3.10;99.90;;;;;;5051319;28;20408;-78
2023/03/08 01:19:00;;;;;;;17.77;12.80;;;3.10;99.90;;;;;;5057570;28;20435;-78
2023/03/08 01:21:27;;;;;;;20.30;14.07;;;3.20;99.90;;;;;;5050215;28;20182;-79
2023/03/08 01:23:53;;;;;;;18.30;13.80;;;3.20;99.90;;;;;;5051358;28;20429;-78
2023/03/08 01:26:21;;;;;;;18.87;13.70;;;3.50;99.90;;;;;;5049147;28;20420;-78
2023/03/08 01:28:47;;;;;;;19.30;14.23;;;3.20;99.90;;;;;;5048440;28;20468;-79
2023/03/08 01:31:19;;;;;;;20.87;14.30;;;3.30;99.90;;;;;;5054610;28;20491;-77
2023/03/08 01:33:45;;;;;;;19.63;14.00;;;3.30;99.90;;;;;;5055499;28;20412;-78
2023/03/08 01:36:14;;;;;;;19.53;13.77;;;3.40;99.90;;;;;;5055417;28;20443;-77
2023/03/08 01:38:40;;;;;;;19.07;13.53;;;3.40;99.90;;;;;;5054617;28;20949;-78
2023/03/08 01:41:07;;;;;;;18.73;14.13;;;3.30;99.90;;;;;;5056215;28;20419;-77
2023/03/08 01:43:35;;;;;;;19.50;13.73;;;3.40;99.90;;;;;;5054263;28;20429;-78
2023/03/08 01:46:22;;;;;;;16.90;14.07;;;3.40;99.90;;;;;;5056312;28;20435;-78
2023/03/08 01:48:53;;;;;;;19.50;13.80;;;3.30;99.90;;;;;;5056132;28;20424;-78
2023/03/08 01:51:25;;;;;;;16.70;12.50;;;3.40;99.90;;;;;;5055394;28;20459;-79
2023/03/08 01:53:52;;;;;;;20.03;14.20;;;3.10;99.90;;;;;;5056215;28;20412;-78
2023/03/08 01:56:19;;;;;;;18.90;14.67;;;3.30;99.90;;;;;;5056106;28;20412;-79
2023/03/08 01:58:48;;;;;;;26.23;14.03;;;3.10;99.90;;;;;;5055673;28;20845;-79
2023/03/08 02:01:14;;;;;;;20.40;14.63;;;3.10;99.90;;;;;;5038041;28;20429;-78
2023/03/08 02:03:40;;;;;;;18.87;13.23;;;3.10;99.90;;;;;;5054775;28;20836;-79
2023/03/08 02:06:07;;;;;;;18.83;13.70;;;3.40;99.90;;;;;;5056461;28;20455;-78
2023/03/08 02:08:33;;;;;;;17.40;13.27;;;3.10;99.90;;;;;;5055567;28;20232;-77
2023/03/08 02:10:59;;;;;;;16.53;12.80;;;3.20;99.90;;;;;;5056077;28;20916;-78
2023/03/08 02:13:25;;;;;;;22.00;14.37;;;3.20;99.90;;;;;;5055650;28;20725;-78
2023/03/08 02:15:54;;;;;;;21.63;14.83;;;3.40;99.90;;;;;;5054849;28;20413;-78
2023/03/08 02:18:20;;;;;;;20.07;13.67;;;3.30;99.90;;;;;;5056035;28;20448;-78
2023/03/08 02:20:46;;;;;;;18.63;14.43;;;3.50;99.90;;;;;;5053704;28;20420;-77
2023/03/08 02:23:15;;;;;;;20.37;12.90;;;3.50;99.90;;;;;;5055527;28;20437;-78
2023/03/08 02:25:51;;;;;;;18.37;12.40;;;3.20;99.90;;;;;;5055018;28;20186;-78
2023/03/08 02:28:18;;;;;;;16.63;12.33;;;3.30;99.90;;;;;;5054413;28;20440;-78
2023/03/08 02:30:44;;;;;;;20.97;14.37;;;3.30;99.90;;;;;;5054195;28;20484;-77
2023/03/08 02:33:10;;;;;;;20.50;13.60;;;3.20;99.90;;;;;;5055191;28;20421;-79
2023/03/08 02:35:37;;;;;;;18.57;13.27;;;3.20;99.90;;;;;;5056302;28;20247;-79
2023/03/08 02:38:03;;;;;;;21.03;14.30;;;3.40;99.90;;;;;;5055997;28;20220;-79
2023/03/08 02:40:29;;;;;;;19.77;13.20;;;3.30;99.90;;;;;;5054138;28;20416;-78
2023/03/08 02:42:55;;;;;;;22.13;14.10;;;3.40;99.90;;;;;;5055570;28;20202;-79
2023/03/08 02:45:22;;;;;;;18.93;13.47;;;3.40;99.90;;;;;;5055529;28;20684;-78
2023/03/08 02:47:47;;;;;;;20.63;14.63;;;3.30;99.90;;;;;;5055315;28;20435;-79
2023/03/08 02:50:13;;;;;;;21.93;14.10;;;3.40;99.90;;;;;;5055556;28;20452;-78
2023/03/08 02:52:39;;;;;;;20.43;14.57;;;3.10;99.90;;;;;;5056070;28;20200;-79
2023/03/08 02:55:05;;;;;;;23.03;13.13;;;3.10;99.90;;;;;;5054815;28;20857;-78
2023/03/08 02:57:31;;;;;;;17.63;12.13;;;3.20;99.90;;;;;;5053889;28;20197;-79
2023/03/08 02:59:56;;;;;;;16.73;12.70;;;3.10;99.90;;;;;;5055445;28;20413;-78
2023/03/08 03:02:22;;;;;;;18.47;12.50;;;3.40;99.90;;;;;;5055674;28;20238;-78
2023/03/08 03:04:48;;;;;;;17.60;11.87;;;3.40;99.90;;;;;;5055893;28;20239;-77
2023/03/08 03:07:13;;;;;;;21.00;14.23;;;3.20;99.90;;;;;;5054215;28;20219;-79
2023/03/08 03:09:39;;;;;;;18.90;13.67;;;3.40;99.90;;;;;;5055548;28;20174;-78
2023/03/08 03:12:05;;;;;;;19.07;13.27;;;3.20;99.90;;;;;;5055594;28;20198;-78
2023/03/08 03:14:30;;;;;;;17.67;12.97;;;3.20;99.90;;;;;;5054287;28;20269;-80
2023/03/08 03:16:57;;;;;;;20.57;13.77;;;3.40;99.90;;;;;;5054795;28;20436;-78
2023/03/08 03:19:23;;;;;;;19.57;13.90;;;3.10;99.90;;;;;;5055394;28;20170;-78
2023/03/08 03:21:49;;;;;;;20.53;14.07;;;3.10;99.90;;;;;;5055342;28;20423;-78
2023/03/08 03:24:15;;;;;;;19.53;13.80;;;3.20;99.90;;;;;;5055405;28;20694;-79
2023/03/08 03:26:40;;;;;;;22.50;13.80;;;3.40;99.90;;;;;;5055329;28;20192;-79
2023/03/08 03:29:06;;;;;;;21.30;13.57;;;3.40;99.90;;;;;;5054792;28;20184;-78
2023/03/08 03:31:32;;;;;;;21.20;12.50;;;3.20;99.90;;;;;;5054760;28;20208;-79
2023/03/08 03:33:58;;;;;;;17.87;12.70;;;3.30;99.90;;;;;;5054525;28;20170;-79
2023/03/08 03:36:23;;;;;;;23.50;12.17;;;3.40;99.90;;;;;;5055361;28;20228;-79
2023/03/08 03:38:49;;;;;;;17.37;11.60;;;3.30;99.90;;;;;;5054732;28;20285;-79
2023/03/08 03:41:19;;;;;;;17.73;12.80;;;3.20;99.90;;;;;;5055136;28;20181;-78
2023/03/08 03:43:45;;;;;;;17.37;12.50;;;3.40;99.90;;;;;;5054197;28;20446;-79
2023/03/08 03:46:13;;;;;;;16.57;12.50;;;3.30;99.90;;;;;;5053440;28;20829;-78
2023/03/08 03:48:40;;;;;;;17.37;12.30;;;3.30;99.90;;;;;;5055230;28;20461;-79
2023/03/08 03:51:11;;;;;;;20.60;12.33;;;3.10;99.90;;;;;;5054898;28;20538;-79
2023/03/08 03:53:37;;;;;;;18.53;11.80;;;3.20;99.90;;;;;;5053810;28;20412;-78
2023/03/08 03:56:10;;;;;;;17.87;12.10;;;3.50;99.90;;;;;;5055979;28;20415;-79
2023/03/08 03:58:36;;;;;;;16.43;11.70;;;3.20;99.90;;;;;;5037823;28;20202;-79
2023/03/08 04:01:26;;;;;;;20.50;12.67;;;3.50;99.90;;;;;;5055055;28;20419;-78
2023/03/08 04:03:53;;;;;;;19.00;11.80;;;3.10;99.90;;;;;;5054126;28;20728;-79
2023/03/08 04:06:27;;;;;;;17.87;12.43;;;3.40;99.90;;;;;;5053982;28;20490;-79
2023/03/08 04:09:05;;;;;;;20.63;12.80;;;3.30;99.90;;;;;;5053728;28;20450;-79
2023/03/08 04:11:34;;;;;;;20.70;12.73;;;3.40;99.90;;;;;;5054325;28;20459;-79
2023/03/08 04:13:59;;;;;;;16.97;11.70;;;3.20;99.90;;;;;;5055385;28;20416;-79
2023/03/08 04:16:30;;;;;;;19.67;13.63;;;3.40;99.90;;;;;;5055363;28;20400;-79
2023/03/08 04:19:02;;;;;;;16.30;11.20;;;3.20;99.90;;;;;;5054600;28;20276;-78
2023/03/08 04:21:29;;;;;;;19.53;11.70;;;3.30;99.90;;;;;;5055013;28;20489;-79
2023/03/08 04:23:55;;;;;;;19.03;12.20;;;3.20;99.90;;;;;;5055052;28;20558;-77
2023/03/08 04:26:21;;;;;;;18.00;11.63;;;3.20;99.90;;;;;;5054337;28;20424;-79
2023/03/08 04:28:47;;;;;;;20.27;12.40;;;3.10;99.90;;;;;;5053762;28;20486;-79
2023/03/08 04:31:25;;;;;;;16.87;11.70;;;3.30;99.90;;;;;;5055142;28;20459;-79
2023/03/08 04:33:51;;;;;;;16.90;11.57;;;3.10;99.90;;;;;;5053441;28;20419;-78
2023/03/08 04:36:18;;;;;;;19.23;12.73;;;3.20;99.90;;;;;;5055195;28;20416;-78
2023/03/08 04:38:45;;;;;;;17.60;12.60;;;3.40;99.90;;;;;;5053906;28;20436;-78
2023/03/08 04:41:11;;;;;;;18.50;12.47;;;3.30;99.90;;;;;;5054976;28;20807;-78
2023/03/08 04:43:44;;;;;;;17.10;12.23;;;3.30;99.90;;;;;;5054701;28;20442;-77
2023/03/08 04:46:10;;;;;;;19.03;13.53;;;3.10;99.90;;;;;;5051512;28;20481;-77
2023/03/08 04:48:36;;;;;;;17.87;12.00;;;3.00;99.90;;;;;;5052274;28;20435;-77
2023/03/08 04:51:04;;;;;;;18.47;11.83;;;3.20;99.90;;;;;;5052328;28;20213;-77
2023/03/08 04:53:31;;;;;;;18.87;12.40;;;3.00;99.90;;;;;;5050926;28;20453;-78
2023/03/08 04:55:59;;;;;;;19.10;12.37;;;3.20;99.90;;;;;;5052545;28;20941;-77
2023/03/08 04:58:26;;;;;;;22.17;14.07;;;3.20;99.90;;;;;;5051942;28;20793;-78
2023/03/08 05:00:51;;;;;;;17.30;12.80;;;3.00;99.90;;;;;;5050987;28;20416;-78
2023/03/08 05:03:17;;;;;;;20.50;12.80;;;3.10;99.90;;;;;;5052074;28;20431;-77
2023/03/08 05:05:45;;;;;;;18.73;12.40;;;3.00;99.90;;;;;;5050017;28;20200;-77
2023/03/08 05:08:10;;;;;;;23.00;14.00;;;2.90;99.90;;;;;;5051825;28;20190;-77
2023/03/08 05:10:37;;;;;;;20.70;12.70;;;3.10;99.90;;;;;;5051928;28;20451;-77
2023/03/08 05:13:02;;;;;;;21.80;11.93;;;3.10;99.90;;;;;;5051853;28;20170;-77
2023/03/08 05:15:28;;;;;;;18.60;11.97;;;3.20;99.90;;;;;;5052062;28;20602;-77
2023/03/08 05:17:54;;;;;;;16.70;11.73;;;3.00;99.90;;;;;;5051401;28;20220;-77
2023/03/08 05:20:19;;;;;;;20.40;12.60;;;3.00;99.90;;;;;;5052007;28;20185;-77
2023/03/08 05:22:45;;;;;;;19.10;13.03;;;3.10;99.90;;;;;;5051868;28;20177;-77
2023/03/08 05:25:11;;;;;;;20.40;11.93;;;3.00;99.90;;;;;;5051796;28;20180;-77
2023/03/08 05:27:36;;;;;;;20.90;12.10;;;2.90;99.90;;;;;;5049970;28;20444;-77
2023/03/08 05:30:04;;;;;;;18.73;11.33;;;3.00;99.90;;;;;;5049767;28;20227;-76
2023/03/08 05:32:30;;;;;;;18.00;11.53;;;3.10;99.90;;;;;;5050067;28;20265;-77
2023/03/08 05:34:55;;;;;;;16.47;10.93;;;3.00;99.90;;;;;;5051476;28;20853;-77
2023/03/08 05:37:24;;;;;;;17.03;11.03;;;2.70;99.90;;;;;;5051325;28;20197;-77
2023/03/08 05:39:51;;;;;;;17.03;11.23;;;2.70;99.90;;;;;;5051453;28;20599;-77
2023/03/08 05:42:16;;;;;;;18.83;11.30;;;2.80;99.90;;;;;;5051179;28;20412;-77
2023/03/08 05:44:42;;;;;;;18.07;11.10;;;2.80;99.90;;;;;;5053784;28;20420;-76
2023/03/08 05:47:08;;;;;;;15.17;9.73;;;2.80;99.90;;;;;;5061027;28;20428;-76
2023/03/08 05:49:33;;;;;;;16.50;9.33;;;2.90;99.90;;;;;;5067861;28;20185;-77
2023/03/08 05:51:59;;;;;;;17.47;10.03;;;2.90;99.90;;;;;;5071505;28;20205;-77
2023/03/08 05:54:25;;;;;;;17.27;11.00;;;2.60;99.90;;;;;;5069707;28;20214;-77
2023/03/08 05:56:50;;;;;;;16.97;10.67;;;2.70;99.90;;;;;;5071125;28;20177;-77
2023/03/08 05:59:16;;;;;;;18.60;10.43;;;2.60;99.90;;;;;;5071345;28;20272;-77
2023/03/08 06:01:42;;;;;;;13.33;9.23;;;2.80;99.90;;;;;;5071220;28;20173;-77
2023/03/08 06:04:08;;;;;;;14.87;9.13;;;2.80;99.90;;;;;;5069601;28;20414;-77
2023/03/08 06:06:34;;;;;;;14.67;9.10;;;2.80;99.90;;;;;;5071291;28;20438;-77
2023/03/08 06:08:59;;;;;;;12.20;8.20;;;2.70;99.90;;;;;;5070751;28;20201;-77
2023/03/08 06:11:25;;;;;;;13.17;7.20;;;2.90;99.90;;;;;;5070951;28;20201;-77
2023/03/08 06:13:51;;;;;;;12.50;8.23;;;2.90;99.90;;;;;;5070677;28;20180;-77
2023/03/08 06:16:17;;;;;;;13.90;8.60;;;2.80;99.90;;;;;;5071466;28;20173;-76
2023/03/08 06:18:43;;;;;;;11.37;7.07;;;2.70;99.90;;;;;;5070501;28;20193;-77
2023/03/08 06:21:13;;;;;;;10.87;6.73;;;2.70;99.90;;;;;;5069767;28;20185;-77
2023/03/08 06:23:39;;;;;;;10.00;6.40;;;2.70;99.90;;;;;;5070690;28;20415;-77
2023/03/08 06:26:06;;;;;;;7.10;5.47;;;2.60;99.90;;;;;;5070971;28;20415;-77
2023/03/08 06:28:32;;;;;;;7.33;4.87;;;2.60;99.90;;;;;;5070363;28;20509;-76
2023/03/08 06:30:58;;;;;;;10.90;5.13;;;2.50;99.90;;;;;;5069066;28;20492;-77
2023/03/08 06:33:27;;;;;;;7.60;5.10;;;2.60;99.90;;;;;;5070391;28;20903;-77
2023/03/08 06:35:57;;;;;;;8.00;4.40;;;2.60;99.90;;;;;;5070632;28;20419;-78
2023/03/08 06:38:23;;;;;;;5.53;3.53;;;2.60;99.90;;;;;;5065870;28;21128;-77
2023/03/08 06:40:49;;;;;;;7.00;3.80;;;2.60;99.90;;;;;;5050024;28;20523;-78
2023/03/08 06:43:15;;;;;;;7.03;4.47;;;2.50;99.90;;;;;;5050045;28;20539;-78
2023/03/08 06:45:40;;;;;;;5.37;4.13;;;2.30;99.90;;;;;;5049755;28;20424;-78
2023/03/08 06:48:08;;;;;;;7.80;4.27;;;2.50;99.90;;;;;;5050153;28;20205;-78
2023/03/08 06:50:34;;;;;;;7.87;3.73;;;2.60;99.90;;;;;;5049940;28;20197;-77
2023/03/08 06:53:00;;;;;;;5.60;4.03;;;2.30;99.90;;;;;;5046868;28;20432;-77
2023/03/08 06:55:26;;;;;;;5.40;4.10;;;2.30;99.90;;;;;;5037915;28;20836;-77
2023/03/08 06:57:54;;;;;;;5.67;3.93;;;2.40;99.90;;;;;;5029924;28;20425;-77
2023/03/08 07:00:21;;;;;;;6.30;3.53;;;2.30;99.90;;;;;;5029906;28;20497;-77
2023/03/08 07:02:47;;;;;;;6.83;4.30;;;2.40;99.90;;;;;;5030121;28;20421;-77
2023/03/08 07:05:17;;;;;;;3.60;3.27;;;2.40;99.90;;;;;;5029613;28;20445;-77
2023/03/08 07:07:42;;;;;;;5.00;3.57;;;2.40;99.90;;;;;;5029442;28;20437;-77
2023/03/08 07:10:10;;;;;;;4.00;2.70;;;2.30;99.90;;;;;;5029815;28;20420;-77
2023/03/08 07:12:39;;;;;;;4.40;3.10;;;2.60;99.90;;;;;;5028838;28;20201;-77
2023/03/08 07:15:09;;;;;;;3.90;2.90;;;2.40;99.90;;;;;;5028732;28;20414;-77
2023/03/08 07:17:35;;;;;;;4.50;2.53;;;2.30;99.90;;;;;;5032110;28;20471;-77
2023/03/08 07:20:04;;;;;;;4.70;2.87;;;2.40;99.90;;;;;;5029556;28;20418;-77
2023/03/08 07:22:30;;;;;;;4.60;3.33;;;2.50;99.90;;;;;;5029765;28;20504;-77
2023/03/08 07:24:55;;;;;;;4.40;3.00;;;2.40;99.90;;;;;;5028249;28;20416;-77
2023/03/08 07:27:21;;;;;;;4.50;2.80;;;2.30;99.90;;;;;;5029458;28;20433;-77
2023/03/08 07:29:47;;;;;;;4.57;2.80;;;2.40;99.90;;;;;;5029767;28;20710;-77
2023/03/08 07:32:12;;;;;;;4.90;2.80;;;2.30;99.90;;;;;;5029742;28;20297;-77
2023/03/08 07:34:38;;;;;;;3.80;2.80;;;2.30;99.90;;;;;;5029505;28;20174;-77
2023/03/08 07:37:04;;;;;;;3.93;2.33;;;2.10;99.90;;;;;;5028154;28;20223;-78
2023/03/08 07:39:29;;;;;;;4.03;2.20;;;2.20;99.90;;;;;;5029517;28;20183;-77
2023/03/08 07:41:55;;;;;;;5.10;2.97;;;2.20;99.90;;;;;;5029541;28;20533;-77
2023/03/08 07:44:21;;;;;;;2.60;2.03;;;2.30;99.90;;;;;;5029495;28;20643;-77
2023/03/08 07:46:46;;;;;;;2.77;2.00;;;2.30;99.90;;;;;;5029325;28;20228;-77
2023/03/08 07:49:12;;;;;;;2.67;1.70;;;2.20;99.90;;;;;;5037631;28;20719;-77
2023/03/08 07:51:38;;;;;;;2.77;2.03;;;2.30;99.90;;;;;;5044332;28;20327;-77
2023/03/08 07:54:04;;;;;;;2.43;2.10;;;2.40;99.90;;;;;;5043684;28;20178;-77
2023/03/08 07:56:29;;;;;;;2.43;2.23;;;2.10;99.90;;;;;;5037931;28;20553;-77
2023/03/08 07:58:56;;;;;;;2.50;1.60;;;2.50;99.90;;;;;;5038912;28;20440;-77
2023/03/08 08:01:22;;;;;;;3.50;1.47;;;2.30;99.90;;;;;;5028146;28;20223;-77
2023/03/08 08:03:48;;;;;;;2.47;1.80;;;2.30;99.90;;;;;;5030773;28;20409;-76
2023/03/08 08:06:14;;;;;;;2.57;1.50;;;2.40;99.90;;;;;;5035198;28;20441;-77
2023/03/08 08:08:40;;;;;;;2.93;1.63;;;2.40;99.90;;;;;;5031785;28;20440;-77
2023/03/08 08:11:13;;;;;;;1.50;1.33;;;2.40;99.90;;;;;;5041612;28;20645;-77
2023/03/08 08:13:39;;;;;;;1.90;1.20;;;2.30;99.90;;;;;;5037013;28;20677;-77
2023/03/08 08:16:06;;;;;;;2.37;1.37;;;2.20;99.90;;;;;;5047847;28;20422;-77
2023/03/08 08:18:32;;;;;;;2.57;1.80;;;2.30;99.90;;;;;;5044293;28;20424;-77
2023/03/08 08:21:00;;;;;;;1.90;1.50;;;2.40;99.90;;;;;;5041960;28;20427;-77
2023/03/08 08:23:26;;;;;;;2.27;1.70;;;2.50;99.90;;;;;;5035169;28;20436;-77
2023/03/08 08:25:52;;;;;;;3.03;1.20;;;2.40;99.90;;;;;;5047673;28;20421;-77
2023/03/08 08:28:18;;;;;;;2.13;1.43;;;2.50;99.90;;;;;;5044898;28;20447;-77
2023/03/08 08:30:43;;;;;;;2.20;1.60;;;2.20;99.90;;;;;;5040330;28;20455;-77
2023/03/08 08:33:09;;;;;;;1.90;1.67;;;2.40;99.90;;;;;;5045766;28;20174;-77
2023/03/08 08:35:38;;;;;;;3.83;1.87;;;2.20;99.90;;;;;;5037864;28;20185;-77
2023/03/08 08:38:04;;;;;;;3.00;1.60;;;2.50;99.90;;;;;;5031421;28;20862;-77
2023/03/08 08:40:30;;;;;;;2.30;1.70;;;2.30;99.90;;;;;;5041455;28;20416;-77
2023/03/08 08:42:55;;;;;;;3.20;2.27;;;2.40;99.90;;;;;;5051615;28;20178;-78
2023/03/08 08:45:21;;;;;;;3.23;2.00;;;2.40;99.90;;;;;;5052986;28;20170;-77
2023/03/08 08:47:47;;;;;;;3.13;2.23;;;2.40;99.90;;;;;;5052384;28;20347;-77
2023/03/08 08:50:12;;;;;;;3.00;2.33;;;2.50;99.90;;;;;;5052667;28;20237;-77
2023/03/08 08:52:38;;;;;;;3.90;2.47;;;2.30;99.90;;;;;;5049843;28;20178;-77
2023/03/08 08:55:04;;;;;;;3.30;2.40;;;2.50;99.90;;;;;;5052516;28;20170;-77
2023/03/08 08:57:29;;;;;;;3.03;2.20;;;2.40;99.90;;;;;;5052215;28;20197;-77
2023/03/08 08:59:55;;;;;;;2.20;1.80;;;2.60;99.90;;;;;;5051554;28;20407;-78
2023/03/08 09:02:21;;;;;;;2.40;2.20;;;2.50;99.90;;;;;;5052929;28;20173;-78
2023/03/08 09:04:46;;;;;;;2.23;1.70;;;2.40;99.90;;;;;;5051411;28;20173;-78
2023/03/08 09:07:12;;;;;;;2.80;2.00;;;2.60;99.90;;;;;;5051148;28;20220;-78
2023/03/08 09:09:38;;;;;;;2.30;1.73;;;2.70;99.90;;;;;;5052821;28;20201;-77
2023/03/08 09:12:04;;;;;;;3.90;2.03;;;2.70;99.90;;;;;;5052608;28;20198;-78
2023/03/08 09:14:29;;;;;;;3.67;1.70;;;2.30;99.90;;;;;;5052521;28;20252;-78
2023/03/08 09:16:55;;;;;;;4.73;1.90;;;2.60;99.90;;;;;;5052231;28;20420;-77
2023/03/08 09:19:20;;;;;;;3.53;1.80;;;2.60;99.90;;;;;;5052398;28;20178;-80
2023/03/08 09:21:46;;;;;;;2.00;1.80;;;2.50;99.90;;;;;;5052280;28;20257;-78
2023/03/08 09:24:12;;;;;;;2.50;1.80;;;2.30;99.90;;;;;;5052627;28;20189;-78
2023/03/08 09:26:37;;;;;;;2.53;2.30;;;2.50;99.90;;;;;;5052441;28;20182;-77
2023/03/08 09:29:04;;;;;;;2.00;1.80;;;2.60;99.90;;;;;;5050304;28;20182;-78
2023/03/08 09:31:31;;;;;;;2.47;2.27;;;2.20;99.90;;;;;;5050899;28;20587;-78
2023/03/08 09:33:57;;;;;;;3.43;2.10;;;2.20;99.90;;;;;;5051961;28;20499;-78
2023/03/08 09:36:22;;;;;;;2.60;2.07;;;2.40;99.90;;;;;;5052324;28;20484;-78
2023/03/08 09:38:49;;;;;;;2.70;2.20;;;2.50;99.90;;;;;;5051338;28;20198;-78
2023/03/08 09:41:18;;;;;;;3.63;2.60;;;2.50;99.90;;;;;;5043605;28;20190;-78
2023/03/08 09:44:00;;;;;;;2.43;2.20;;;2.20;99.90;;;;;;5050991;28;20992;-78
2023/03/08 09:46:35;;;;;;;2.00;1.80;;;2.60;99.90;;;;;;5066652;28;20916;-78
2023/03/08 09:49:03;;;;;;;2.20;1.93;;;2.40;99.90;;;;;;5054214;28;20932;-78
2023/03/08 09:51:35;;;;;;;1.50;1.40;;;2.70;99.90;;;;;;5049772;28;20451;-79
2023/03/08 09:54:12;;;;;;;1.90;1.70;;;2.60;99.90;;;;;;5051619;28;20419;-77
2023/03/08 09:56:44;;;;;;;2.43;1.90;;;2.60;99.90;;;;;;5051697;28;20423;-78
2023/03/08 09:59:27;;;;;;;1.80;1.50;;;2.80;99.90;;;;;;5032696;28;20501;-79
2023/03/08 10:02:20;;;;;;;2.00;1.60;;;2.80;99.90;;;;;;5031677;28;20902;-78
2023/03/08 10:04:57;;;;;;;2.00;1.70;;;2.70;99.90;;;;;;5031321;28;20418;-78
2023/03/08 10:07:35;;;;;;;2.50;1.80;;;2.80;99.90;;;;;;5031247;28;20537;-78
2023/03/08 10:10:10;;;;;;;1.73;1.43;;;2.70;99.90;;;;;;5030060;28;20781;-78
2023/03/08 10:12:55;;;;;;;2.53;1.90;;;2.80;99.90;;;;;;5031374;28;20804;-77
2023/03/08 10:15:23;;;;;;;2.10;1.90;;;2.60;99.90;;;;;;5030207;28;20416;-78
2023/03/08 10:17:58;;;;;;;2.17;1.97;;;2.80;99.90;;;;;;5030973;28;20436;-78
2023/03/08 10:20:30;;;;;;;2.10;1.90;;;2.80;99.90;;;;;;5030112;28;20921;-77
2023/03/08 10:23:01;;;;;;;3.70;2.10;;;2.80;99.90;;;;;;5031056;28;20483;-78
2023/03/08 10:25:32;;;;;;;2.30;2.10;;;2.50;99.90;;;;;;5030103;28;20413;-78
2023/03/08 10:28:01;;;;;;;4.50;2.33;;;2.80;99.90;;;;;;5030774;28;20441;-77
2023/03/08 10:30:35;;;;;;;2.30;1.93;;;2.90;99.90;;;;;;5030943;28;20546;-77
2023/03/08 10:33:06;;;;;;;2.37;2.17;;;2.60;99.90;;;;;;5030871;28;20843;-78
2023/03/08 10:35:57;;;;;;;2.50;1.90;;;2.80;99.90;;;;;;5031126;28;20409;-77
2023/03/08 10:38:27;;;;;;;2.20;2.00;;;2.70;99.90;;;;;;5029181;28;20437;-79
2023/03/08 10:41:14;;;;;;;2.50;2.30;;;2.80;99.90;;;;;;5030136;28;20781;-78
2023/03/08 10:43:53;;;;;;;2.50;2.30;;;2.90;99.90;;;;;;5033797;28;20417;-78
2023/03/08 10:46:24;;;;;;;2.00;1.80;;;3.00;99.90;;;;;;5072600;28;20422;-78
2023/03/08 10:48:50;;;;;;;2.60;2.40;;;2.90;99.90;;;;;;5075378;28;20443;-78
2023/03/08 10:51:18;;;;;;;2.57;2.20;;;3.10;99.90;;;;;;5054566;28;20472;-78
2023/03/08 10:53:59;;;;;;;2.37;2.17;;;3.10;99.90;;;;;;5052296;28;20412;-77
2023/03/08 10:56:33;;;;;;;2.73;2.07;;;3.20;99.90;;;;;;5054021;28;20404;-77
2023/03/08 10:58:59;;;;;;;2.30;2.10;;;3.10;99.90;;;;;;5053114;28;20451;-78
2023/03/08 11:01:30;;;;;;;2.70;2.50;;;3.10;99.90;;;;;;5053626;28;20423;-78
2023/03/08 11:04:00;;;;;;;2.50;2.30;;;2.90;99.90;;;;;;5052791;28;20416;-78
2023/03/08 11:06:25;;;;;;;2.60;2.40;;;3.10;99.90;;;;;;5053511;28;20442;-77
2023/03/08 11:08:54;;;;;;;2.97;2.33;;;3.20;99.90;;;;;;5053235;28;20432;-79
2023/03/08 11:11:20;;;;;;;2.57;2.37;;;3.20;99.90;;;;;;5052611;28;20205;-79
2023/03/08 11:13:47;;;;;;;2.50;2.30;;;3.30;99.90;;;;;;5050716;28;20416;-78
2023/03/08 11:16:35;;;;;;;2.50;2.30;;;3.40;99.90;;;;;;5054790;28;20742;-78
2023/03/08 11:19:30;;;;;;;2.80;2.60;;;3.40;99.90;;;;;;5054304;28;20428;-78
2023/03/08 11:22:20;;;;;;;3.23;2.43;;;3.40;99.90;;;;;;5055865;28;20765;-77
2023/03/08 11:25:06;;;;;;;2.60;2.40;;;3.40;99.90;;;;;;5055365;28;20420;-79
2023/03/08 11:27:54;;;;;;;2.53;2.33;;;3.40;99.90;;;;;;5056062;28;20467;-79
2023/03/08 11:30:36;;;;;;;2.40;2.20;;;3.40;99.90;;;;;;5055903;28;20482;-79
2023/03/08 11:33:49;;;;;;;2.20;2.00;;;3.30;99.90;;;;;;5055499;28;20929;-77
2023/03/08 11:36:20;;;;;;;3.27;2.60;;;3.50;99.90;;;;;;5017220;28;20420;-79
2023/03/08 11:39:13;;;;;;;2.77;2.57;;;3.30;99.90;;;;;;5032817;28;20515;-79
2023/03/08 11:41:48;;;;;;;2.87;2.57;;;3.20;99.90;;;;;;5050123;28;20416;-80
2023/03/08 11:44:40;;;;;;;3.13;2.83;;;3.40;99.90;;;;;;5037982;28;20416;-78
2023/03/08 11:47:32;;;;;;;2.27;2.07;;;3.40;99.90;;;;;;5034920;28;20523;-78
2023/03/08 11:50:29;;;;;;;2.47;2.27;;;3.40;99.90;;;;;;5045527;28;20503;-78
2023/03/08 11:53:20;;;;;;;3.30;2.37;;;3.30;99.90;;;;;;5053846;28;20444;-80
2023/03/08 11:55:54;;;;;;;2.53;2.33;;;3.20;99.90;;;;;;5055999;28;20497;-79
2023/03/08 11:58:47;;;;;;;2.53;2.33;;;3.40;99.90;;;;;;5055623;28;20423;-78
2023/03/08 12:01:16;;;;;;;3.43;2.50;;;3.30;99.90;;;;;;5056635;28;20412;-79
2023/03/08 12:03:48;;;;;;;2.60;2.40;;;3.40;99.90;;;;;;5055560;28;20503;-80
2023/03/08 12:06:26;;;;;;;4.43;2.83;;;3.30;99.90;;;;;;5056097;28;20515;-79
2023/03/08 12:09:00;;;;;;;4.83;2.70;;;3.30;99.90;;;;;;5055644;28;21005;-79
2023/03/08 12:11:30;;;;;;;3.37;3.00;;;3.30;99.90;;;;;;5038831;28;20894;-79
2023/03/08 12:14:12;;;;;;;2.97;2.67;;;3.40;99.90;;;;;;5035709;28;20420;-77
2023/03/08 12:16:53;;;;;;;3.43;3.13;;;3.40;99.90;;;;;;5035300;28;20835;-80
2023/03/08 12:19:40;;;;;;;3.20;2.80;;;3.50;99.90;;;;;;5035687;28;20413;-80
2023/03/08 12:22:29;;;;;;;3.87;3.20;;;3.50;99.90;;;;;;5036292;28;20770;-78
2023/03/08 12:25:16;;;;;;;3.00;2.70;;;3.30;99.90;;;;;;5035666;28;20417;-79
2023/03/08 12:27:52;;;;;;;2.80;2.57;;;3.30;99.90;;;;;;5036748;28;20571;-79
2023/03/08 12:30:41;;;;;;;3.83;3.43;;;3.50;99.90;;;;;;5032775;28;20514;-80
2023/03/08 12:33:11;;;;;;;3.30;3.00;;;3.40;99.90;;;;;;5034797;28;20470;-80
2023/03/08 12:35:55;;;;;;;3.70;3.40;;;3.40;99.90;;;;;;5035999;28;20456;-79
2023/03/08 12:38:21;;;;;;;4.10;2.90;;;3.40;99.90;;;;;;5017983;28;20502;-79
2023/03/08 12:40:52;;;;;;;5.40;3.13;;;3.40;99.90;;;;;;5035987;28;20413;-78
2023/03/08 12:43:18;;;;;;;3.73;3.20;;;3.40;99.90;;;;;;5036365;28;20231;-79
2023/03/08 12:46:04;;;;;;;3.80;3.37;;;3.30;99.90;;;;;;5058084;28;20423;-80
2023/03/08 12:48:36;;;;;;;4.27;3.87;;;3.50;99.90;;;;;;5075786;28;20197;-79
2023/03/08 12:51:27;;;;;;;3.43;3.13;;;3.60;99.90;;;;;;5075529;28;21089;-80
2023/03/08 12:53:53;;;;;;;5.13;4.23;;;3.40;99.90;;;;;;5036130;28;20793;-79
2023/03/08 12:56:31;;;;;;;4.27;3.80;;;3.40;99.90;;;;;;5035715;28;20401;-78
2023/03/08 12:59:10;;;;;;;4.40;4.00;;;3.50;99.90;;;;;;5017942;28;20252;-79